createdAt,value
2024-03-30T00:01:29.660Z,9.3
2024-03-30T00:06:39.910Z,9.3
2024-03-30T00:11:39.831Z,9.3
2024-03-30T00:16:39.953Z,9.3
2024-03-30T00:22:29.469Z,9.3
2024-03-30T00:27:29.658Z,9.3
2024-03-30T00:32:29.668Z,9.2
2024-03-30T00:37:29.811Z,9.2
2024-03-30T00:42:47.171Z,9.1
2024-03-30T00:47:46.902Z,9.1
2024-03-30T00:53:29.656Z,9.1
2024-03-30T00:58:29.687Z,9.1
2024-03-30T01:03:39.940Z,9.1
2024-03-30T01:08:39.949Z,9.1
2024-03-30T01:13:39.933Z,9.1
2024-03-30T01:18:40.050Z,9.1
2024-03-30T01:24:29.675Z,9
2024-03-30T01:29:29.707Z,9
2024-03-30T01:34:39.933Z,9
2024-03-30T01:39:39.944Z,8.9
2024-03-30T01:44:39.958Z,9
2024-03-30T01:50:29.685Z,8.9
2024-03-30T01:55:34.147Z,9
2024-03-30T02:00:39.942Z,8.9
2024-03-30T02:05:39.980Z,8.9
2024-03-30T02:11:29.683Z,8.9
2024-03-30T02:16:39.939Z,9
2024-03-30T02:22:29.440Z,8.8
2024-03-30T02:27:29.721Z,8.8
2024-03-30T02:32:29.835Z,8.9
2024-03-30T02:37:39.707Z,8.9
2024-03-30T02:42:39.804Z,8.9
2024-03-30T02:48:29.531Z,8.9
2024-03-30T02:53:39.742Z,9
2024-03-30T02:58:39.743Z,9
2024-03-30T03:03:40.227Z,9
2024-03-30T03:09:29.476Z,9
2024-03-30T03:14:39.932Z,9
2024-03-30T03:20:29.472Z,8.9
2024-03-30T03:25:40.378Z,9
2024-03-30T03:31:29.473Z,9
2024-03-30T03:36:29.493Z,8.9
2024-03-30T03:41:29.493Z,8.9
2024-03-30T03:46:29.601Z,8.9
2024-03-30T03:51:29.677Z,9
2024-03-30T04:02:29.770Z,9
2024-03-30T04:07:39.962Z,9
2024-03-30T04:13:39.760Z,8.9
2024-03-30T04:19:29.716Z,8.9
2024-03-30T04:24:39.762Z,8.9
2024-03-30T04:29:39.921Z,8.9
2024-03-30T04:35:29.710Z,8.9
2024-03-30T04:40:39.939Z,8.9
2024-03-30T04:46:29.700Z,8.9
2024-03-30T04:51:39.719Z,8.8
2024-03-30T04:56:39.965Z,8.8
2024-03-30T05:02:29.509Z,8.8
2024-03-30T05:07:29.682Z,8.8
2024-03-30T05:12:29.708Z,8.8
2024-03-30T05:17:29.712Z,8.8
2024-03-30T05:22:39.990Z,8.8
2024-03-30T05:27:39.984Z,8.8
2024-03-30T05:32:40.030Z,8.8
2024-03-30T05:38:29.661Z,8.8
2024-03-30T05:43:39.970Z,8.8
2024-03-30T05:49:29.436Z,8.8
2024-03-30T05:54:29.717Z,8.8
2024-03-30T05:59:39.975Z,8.9
2024-03-30T06:04:39.984Z,8.9
2024-03-30T06:10:29.678Z,8.9
2024-03-30T06:15:39.782Z,8.8
2024-03-30T06:20:39.966Z,8.9
2024-03-30T06:26:29.475Z,8.9
2024-03-30T06:36:29.696Z,8.9
2024-03-30T06:41:29.694Z,8.9
2024-03-30T06:46:39.767Z,8.9
2024-03-30T06:51:39.949Z,8.9
2024-03-30T06:56:40.080Z,8.9
2024-03-30T07:02:29.532Z,9
2024-03-30T07:07:39.952Z,9
2024-03-30T07:12:39.960Z,9
2024-03-30T07:17:39.960Z,8.9
2024-03-30T07:23:29.712Z,9
2024-03-30T07:28:39.961Z,9
2024-03-30T07:34:29.676Z,9
2024-03-30T07:39:29.698Z,9.1
2024-03-30T07:44:39.970Z,9.1
2024-03-30T07:49:39.968Z,9.1
2024-03-30T07:55:29.684Z,9.2
2024-03-30T08:00:29.725Z,9.2
2024-03-30T08:05:29.703Z,9.2
2024-03-30T08:10:40.028Z,9.1
2024-03-30T08:15:40.261Z,9.2
2024-03-30T08:21:29.693Z,9.1
2024-03-30T08:26:36.384Z,9.2
2024-03-30T08:31:39.734Z,9
2024-03-30T08:36:39.770Z,9.1
2024-03-30T08:42:29.506Z,9.1
2024-03-30T08:47:40.062Z,9.2
2024-03-30T08:53:29.539Z,9.3
2024-03-30T08:58:29.545Z,9
2024-03-30T09:03:39.755Z,9.2
2024-03-30T09:09:31.466Z,9.3
2024-03-30T09:14:29.512Z,9.3
2024-03-30T09:19:39.796Z,9.1
2024-03-30T09:25:29.499Z,9.1
2024-03-30T09:30:39.789Z,8.9
2024-03-30T09:35:39.860Z,8.8
2024-03-30T09:41:29.505Z,9.1
2024-03-30T09:46:29.590Z,9.2
2024-03-30T09:51:39.742Z,9.2
2024-03-30T09:56:39.811Z,9.1
2024-03-30T10:01:39.877Z,9.1
2024-03-30T10:06:39.880Z,9.1
2024-03-30T10:12:29.543Z,9
2024-03-30T10:17:29.839Z,8.9
2024-03-30T10:22:39.988Z,9.2
2024-03-30T10:28:29.724Z,9.2
2024-03-30T10:33:39.997Z,9
2024-03-30T10:39:29.496Z,8.5
2024-03-30T10:44:29.715Z,8.3
2024-03-30T10:49:40.023Z,8.3
2024-03-30T10:55:29.719Z,8.2
2024-03-30T11:06:29.748Z,8.2
2024-03-30T11:11:39.989Z,8.2
2024-03-30T11:16:40.019Z,8.2
2024-03-30T11:22:29.558Z,8.1
2024-03-30T11:28:29.533Z,8.3
2024-03-30T11:33:29.761Z,8.5
2024-03-30T11:38:41.657Z,8.4
2024-03-30T11:43:39.807Z,8.4
2024-03-30T11:48:40.023Z,8.5
2024-03-30T11:54:29.723Z,8.6
2024-03-30T11:59:40.054Z,8.6
2024-03-30T12:05:29.520Z,8.5
2024-03-30T12:11:40.055Z,8.5
2024-03-30T12:17:29.780Z,8.5
2024-03-30T12:22:39.816Z,8.6
2024-03-30T12:27:40.048Z,8.6
2024-03-30T12:33:29.750Z,8.4
2024-03-30T12:38:29.802Z,8.6
2024-03-30T12:43:39.825Z,8.6
2024-03-30T12:49:29.812Z,8.5
2024-03-30T12:54:39.888Z,8.5
2024-03-30T12:59:40.168Z,8.5
2024-03-30T13:05:29.747Z,8.5
2024-03-30T13:10:29.844Z,8.6
2024-03-30T13:15:40.042Z,8.1
2024-03-30T13:20:40.080Z,8
2024-03-30T13:26:29.788Z,7.9
2024-03-30T13:31:39.861Z,7.7
2024-03-30T13:41:41.281Z,7.6
2024-03-30T13:46:40.050Z,7.7
2024-03-30T13:52:29.766Z,7.5
2024-03-30T14:02:40.044Z,7.3
2024-03-30T14:08:29.774Z,7.3
2024-03-30T14:13:29.783Z,7.3
2024-03-30T14:18:40.063Z,7.5
2024-03-30T14:23:40.134Z,7.6
2024-03-30T14:29:29.771Z,7.5
2024-03-30T14:34:39.907Z,7.6
2024-03-30T14:39:40.849Z,7.6
2024-03-30T14:45:29.827Z,7.6
2024-03-30T14:50:29.844Z,7.7
2024-03-30T14:55:29.899Z,7.7
2024-03-30T15:00:40.187Z,7.7
2024-03-30T15:06:30.341Z,7.8
2024-03-30T15:11:29.582Z,7.6
2024-03-30T15:16:39.866Z,7.7
2024-03-30T15:21:39.943Z,7.7
2024-03-30T15:27:29.524Z,7.8
2024-03-30T15:32:29.577Z,7.8
2024-03-30T15:37:29.609Z,7.8
2024-03-30T15:42:39.881Z,7.9
2024-03-30T15:47:40.574Z,8
2024-03-30T15:53:29.609Z,8
2024-03-30T15:58:29.621Z,8
2024-03-30T16:03:39.890Z,7.9
2024-03-30T16:09:29.802Z,8
2024-03-30T16:14:39.924Z,8
2024-03-30T16:19:40.076Z,8
2024-03-30T16:24:40.096Z,7.9
2024-03-30T16:30:29.830Z,8
2024-03-30T16:35:40.069Z,8
2024-03-30T16:40:40.082Z,8.3
2024-03-30T16:45:40.088Z,8.2
2024-03-30T16:50:40.103Z,8.3
2024-03-30T16:55:40.087Z,8.3
2024-03-30T17:01:29.909Z,8.2
2024-03-30T17:06:39.876Z,8.1
2024-03-30T17:11:39.893Z,8.4
2024-03-30T17:17:29.820Z,8.3
2024-03-30T17:22:41.624Z,8.3
2024-03-30T17:28:29.801Z,8.2
2024-03-30T17:33:29.833Z,8.3
2024-03-30T17:38:39.873Z,8.4
2024-03-30T17:43:40.113Z,8.4
2024-03-30T17:49:29.800Z,8.4
2024-03-30T17:54:29.810Z,8.3
2024-03-30T17:59:29.867Z,8.3
2024-03-30T18:04:40.055Z,8.3
2024-03-30T18:09:40.108Z,8.3
2024-03-30T18:14:40.106Z,8.3
2024-03-30T18:19:40.120Z,8.2
2024-03-30T18:25:29.840Z,8.2
2024-03-30T18:30:40.115Z,8.2
2024-03-30T18:36:29.837Z,8.2
2024-03-30T18:41:29.839Z,8.2
2024-03-30T18:46:40.098Z,8.2
2024-03-30T18:52:29.680Z,8.2
2024-03-30T18:57:29.828Z,8.2
2024-03-30T19:02:39.949Z,8.2
2024-03-30T19:07:40.105Z,8.2
2024-03-30T19:13:29.639Z,8.2
2024-03-30T19:18:29.830Z,8.2
2024-03-30T19:23:29.865Z,8.2
2024-03-30T19:28:39.881Z,8.3
2024-03-30T19:33:40.118Z,8.3
2024-03-30T19:38:40.122Z,8.2
2024-03-30T19:44:29.918Z,8.2
2024-03-30T19:49:40.121Z,8.3
2024-03-30T19:55:29.675Z,8.3
2024-03-30T20:00:29.685Z,8.2
2024-03-30T20:05:29.808Z,8.2
2024-03-30T20:10:29.831Z,8.2
2024-03-30T20:15:39.922Z,8.2
2024-03-30T20:20:40.112Z,8.2
2024-03-30T20:26:29.833Z,8.2
2024-03-30T20:31:40.112Z,8.2
2024-03-30T20:42:29.842Z,8.1
2024-03-30T20:47:40.078Z,8.1
2024-03-30T20:53:29.791Z,8.1
2024-03-30T20:58:29.799Z,8.1
2024-03-30T21:03:40.092Z,8.1
2024-03-30T21:09:29.671Z,8.1
2024-03-30T21:14:39.909Z,8.2
2024-03-30T21:25:29.743Z,8.1
2024-03-30T21:30:39.932Z,8
2024-03-30T21:36:29.613Z,8
2024-03-30T21:41:29.600Z,8
2024-03-30T21:46:29.642Z,8
2024-03-30T21:51:29.729Z,8
2024-03-30T22:02:29.580Z,7.9
2024-03-30T22:07:29.666Z,7.9
2024-03-30T22:12:39.895Z,7.9
2024-03-30T22:17:39.966Z,7.9
2024-03-30T22:22:39.921Z,7.8
2024-03-30T22:27:40.005Z,7.9
2024-03-30T22:32:40.118Z,7.9
2024-03-30T22:38:29.912Z,7.9
2024-03-30T22:43:40.139Z,7.8
2024-03-30T22:49:29.852Z,7.7
2024-03-30T22:54:40.103Z,7.6
2024-03-30T23:00:29.657Z,7.6
2024-03-30T23:05:29.868Z,7.6
2024-03-30T23:10:40.123Z,7.6
2024-03-30T23:16:29.816Z,7.6
2024-03-30T23:21:29.846Z,7.6
2024-03-30T23:42:29.848Z,7.5
2024-03-30T23:47:40.096Z,7.6
2024-03-30T23:53:29.864Z,7.4
2024-03-30T23:58:39.941Z,7.5
